メインページ
METAR-TAF:

METAR-TAF

空港 :

ボストン, マサチューセッツ州, アメリカ合衆国

ジェネラル・エドワード・ローレンス・ローガン国際空港

緯度: 42-21-38N, 経度: 071-00-38W, 海抜: 6m

現時点の気象観測

当レポートは45分前の21:54(UTC)に作成
の風 12kt
気温 22°C
湿度 60%
気圧 1020 hPa
視程: 16.1km
高度4500ftの雲は散在している
高度22000ftの雲は散在している

METAR: KBOS 262154Z 10012KT 10SM SCT045 SCT220 22/14 A3012 RMK AO2 SLP200 T02220139 $

時間: 18:39 (22:39 UTC)

予報

当レポートは2時間31分前の20:08(UTC)に作成
予報は26日の 20時(UTC)から 27日の 24時(UTC)まで有効
東/南東の風 9kt
視程: 10km
高度5000ftの雲はほとんどない
26日の 2200時(UTC)から
南東の風 6kt
視程: 10km
高度5000ftの雲は散在している
27日の 0000時(UTC)から
南/南東の風 8kt
視程: 10km
高度25000ftの雲は散在している
27日の 0300時(UTC)から
南/南西の風 7kt
視程: 10km
高度25000ftの雲はほとんどない
27日の 1800時(UTC)から
南/南西の風 11kt
視程: 10km
高度5000ftの千切れ雲あり
近辺でにわか雨

TAF: KBOS 262008Z 2620/2724 11009KT P6SM FEW050 FM262200 13006KT P6SM SCT050 FM270000 16008KT P6SM SCT250 FM270300 21007KT P6SM FEW250 FM271800 20011KT P6SM VCSH BKN050

4,000以上の空港の気象観測と天気予報(METAR報とTAF報)

利用可能な観測所は地図上に黄色い丸と赤い丸で示す。

丸の上にカーソルを重ねると観測所名を参照できる。

次にクリックすると気象観測と天気予報を参照できる。

マップの切り替え:黒色「×」印の緑ボタンをクリックして拡大、「-」印の緑ボタンをクリックして縮小、緑色の三角印をクリックして隣りの地図に切り替え


METAR-TAF: